sensor_id;sensor_type;location;lat;lon;timestamp;P1;durP1;ratioP1;P2;durP2;ratioP2
10191;SDS011;17580;50.850;4.504;2023-03-23T00:00:56;3.53;;;3.20;;
10191;SDS011;17580;50.850;4.504;2023-03-23T00:03:23;3.33;;;3.13;;
10191;SDS011;17580;50.850;4.504;2023-03-23T00:05:52;3.70;;;3.47;;
10191;SDS011;17580;50.850;4.504;2023-03-23T00:08:24;3.50;;;3.20;;
10191;SDS011;17580;50.850;4.504;2023-03-23T00:10:51;3.60;;;3.37;;
10191;SDS011;17580;50.850;4.504;2023-03-23T00:13:21;3.00;;;2.80;;
10191;SDS011;17580;50.850;4.504;2023-03-23T00:15:49;3.20;;;2.90;;
10191;SDS011;17580;50.850;4.504;2023-03-23T00:18:17;3.30;;;3.07;;
10191;SDS011;17580;50.850;4.504;2023-03-23T00:20:47;3.37;;;3.10;;
10191;SDS011;17580;50.850;4.504;2023-03-23T00:23:17;3.93;;;3.43;;
10191;SDS011;17580;50.850;4.504;2023-03-23T00:25:45;3.30;;;3.10;;
10191;SDS011;17580;50.850;4.504;2023-03-23T00:28:13;3.50;;;3.07;;
10191;SDS011;17580;50.850;4.504;2023-03-23T00:30:41;4.07;;;3.67;;
10191;SDS011;17580;50.850;4.504;2023-03-23T00:33:10;4.80;;;3.20;;
10191;SDS011;17580;50.850;4.504;2023-03-23T00:35:39;3.63;;;3.23;;
10191;SDS011;17580;50.850;4.504;2023-03-23T00:38:09;4.03;;;3.50;;
10191;SDS011;17580;50.850;4.504;2023-03-23T00:40:37;3.80;;;3.40;;
10191;SDS011;17580;50.850;4.504;2023-03-23T00:43:04;3.20;;;2.90;;
10191;SDS011;17580;50.850;4.504;2023-03-23T00:45:33;4.47;;;3.90;;
10191;SDS011;17580;50.850;4.504;2023-03-23T00:48:01;3.63;;;3.33;;
10191;SDS011;17580;50.850;4.504;2023-03-23T00:50:29;4.30;;;3.90;;
10191;SDS011;17580;50.850;4.504;2023-03-23T00:52:56;5.07;;;3.70;;
10191;SDS011;17580;50.850;4.504;2023-03-23T00:55:24;3.10;;;2.90;;
10191;SDS011;17580;50.850;4.504;2023-03-23T00:57:53;4.50;;;3.20;;
10191;SDS011;17580;50.850;4.504;2023-03-23T01:00:20;3.50;;;3.20;;
10191;SDS011;17580;50.850;4.504;2023-03-23T01:02:47;3.50;;;3.20;;
10191;SDS011;17580;50.850;4.504;2023-03-23T01:05:16;3.63;;;3.33;;
10191;SDS011;17580;50.850;4.504;2023-03-23T01:07:43;5.93;;;3.47;;
10191;SDS011;17580;50.850;4.504;2023-03-23T01:10:11;3.23;;;3.03;;
10191;SDS011;17580;50.850;4.504;2023-03-23T01:12:41;6.63;;;3.20;;
10191;SDS011;17580;50.850;4.504;2023-03-23T01:15:12;3.40;;;3.20;;
10191;SDS011;17580;50.850;4.504;2023-03-23T01:17:40;3.90;;;3.60;;
10191;SDS011;17580;50.850;4.504;2023-03-23T01:20:07;3.83;;;3.40;;
10191;SDS011;17580;50.850;4.504;2023-03-23T01:22:35;3.17;;;2.97;;
10191;SDS011;17580;50.850;4.504;2023-03-23T01:25:03;4.03;;;3.40;;
10191;SDS011;17580;50.850;4.504;2023-03-23T01:27:30;4.43;;;3.60;;
10191;SDS011;17580;50.850;4.504;2023-03-23T01:29:57;3.60;;;3.30;;
10191;SDS011;17580;50.850;4.504;2023-03-23T01:32:25;3.50;;;3.20;;
10191;SDS011;17580;50.850;4.504;2023-03-23T01:34:52;3.33;;;3.07;;
10191;SDS011;17580;50.850;4.504;2023-03-23T01:37:19;3.30;;;3.00;;
10191;SDS011;17580;50.850;4.504;2023-03-23T01:39:51;3.60;;;3.30;;
10191;SDS011;17580;50.850;4.504;2023-03-23T01:42:20;3.00;;;2.80;;
10191;SDS011;17580;50.850;4.504;2023-03-23T01:47:54;4.07;;;3.63;;
10191;SDS011;17580;50.850;4.504;2023-03-23T01:50:25;2.90;;;2.70;;
10191;SDS011;17580;50.850;4.504;2023-03-23T01:52:55;3.73;;;3.30;;
10191;SDS011;17580;50.850;4.504;2023-03-23T01:55:24;4.33;;;2.77;;
10191;SDS011;17580;50.850;4.504;2023-03-23T01:57:53;2.80;;;2.60;;
10191;SDS011;17580;50.850;4.504;2023-03-23T02:00:22;3.00;;;2.80;;
10191;SDS011;17580;50.850;4.504;2023-03-23T02:02:50;5.97;;;3.07;;
10191;SDS011;17580;50.850;4.504;2023-03-23T02:05:23;2.90;;;2.70;;
10191;SDS011;17580;50.850;4.504;2023-03-23T02:07:56;4.20;;;2.80;;
10191;SDS011;17580;50.850;4.504;2023-03-23T02:10:28;3.37;;;3.07;;
10191;SDS011;17580;50.850;4.504;2023-03-23T02:12:56;3.77;;;3.37;;
10191;SDS011;17580;50.850;4.504;2023-03-23T02:15:24;3.97;;;2.93;;
10191;SDS011;17580;50.850;4.504;2023-03-23T02:17:56;3.03;;;2.83;;
10191;SDS011;17580;50.850;4.504;2023-03-23T02:20:33;3.50;;;3.30;;
10191;SDS011;17580;50.850;4.504;2023-03-23T02:23:30;3.23;;;2.93;;
10191;SDS011;17580;50.850;4.504;2023-03-23T02:26:15;4.30;;;2.90;;
10191;SDS011;17580;50.850;4.504;2023-03-23T02:32:09;2.70;;;2.50;;
10191;SDS011;17580;50.850;4.504;2023-03-23T02:34:44;2.47;;;2.30;;
10191;SDS011;17580;50.850;4.504;2023-03-23T02:37:13;3.30;;;2.33;;
10191;SDS011;17580;50.850;4.504;2023-03-23T02:39:47;5.00;;;2.50;;
10191;SDS011;17580;50.850;4.504;2023-03-23T02:42:18;3.17;;;2.33;;
10191;SDS011;17580;50.850;4.504;2023-03-23T02:44:49;2.17;;;2.07;;
10191;SDS011;17580;50.850;4.504;2023-03-23T02:47:19;4.67;;;2.37;;
10191;SDS011;17580;50.850;4.504;2023-03-23T02:49:52;1.83;;;1.70;;
10191;SDS011;17580;50.850;4.504;2023-03-23T02:52:22;2.37;;;2.17;;
10191;SDS011;17580;50.850;4.504;2023-03-23T02:54:51;4.53;;;2.23;;
10191;SDS011;17580;50.850;4.504;2023-03-23T02:57:21;7.00;;;2.03;;
10191;SDS011;17580;50.850;4.504;2023-03-23T02:59:50;3.80;;;2.17;;
10191;SDS011;17580;50.850;4.504;2023-03-23T03:02:17;4.63;;;2.20;;
10191;SDS011;17580;50.850;4.504;2023-03-23T03:04:47;2.63;;;1.67;;
10191;SDS011;17580;50.850;4.504;2023-03-23T03:10:16;2.30;;;1.60;;
10191;SDS011;17580;50.850;4.504;2023-03-23T03:12:51;4.10;;;1.97;;
10191;SDS011;17580;50.850;4.504;2023-03-23T03:15:24;2.10;;;1.90;;
10191;SDS011;17580;50.850;4.504;2023-03-23T03:17:58;5.07;;;1.83;;
10191;SDS011;17580;50.850;4.504;2023-03-23T03:20:29;2.20;;;1.73;;
10191;SDS011;17580;50.850;4.504;2023-03-23T03:23:00;4.23;;;2.20;;
10191;SDS011;17580;50.850;4.504;2023-03-23T03:25:28;2.73;;;1.50;;
10191;SDS011;17580;50.850;4.504;2023-03-23T03:27:56;1.50;;;1.40;;
10191;SDS011;17580;50.850;4.504;2023-03-23T03:30:25;1.90;;;1.80;;
10191;SDS011;17580;50.850;4.504;2023-03-23T03:32:56;3.00;;;1.80;;
10191;SDS011;17580;50.850;4.504;2023-03-23T03:35:25;4.33;;;1.93;;
10191;SDS011;17580;50.850;4.504;2023-03-23T03:37:52;3.80;;;1.80;;
10191;SDS011;17580;50.850;4.504;2023-03-23T03:40:22;2.50;;;2.27;;
10191;SDS011;17580;50.850;4.504;2023-03-23T03:42:49;1.90;;;1.80;;
10191;SDS011;17580;50.850;4.504;2023-03-23T03:45:17;1.70;;;1.70;;
10191;SDS011;17580;50.850;4.504;2023-03-23T03:47:45;2.83;;;2.20;;
10191;SDS011;17580;50.850;4.504;2023-03-23T03:50:12;1.87;;;1.77;;
10191;SDS011;17580;50.850;4.504;2023-03-23T03:52:40;4.10;;;2.47;;
10191;SDS011;17580;50.850;4.504;2023-03-23T03:55:07;2.57;;;2.13;;
10191;SDS011;17580;50.850;4.504;2023-03-23T03:57:37;3.50;;;2.00;;
10191;SDS011;17580;50.850;4.504;2023-03-23T04:00:07;4.27;;;2.20;;
10191;SDS011;17580;50.850;4.504;2023-03-23T04:02:40;2.40;;;2.10;;
10191;SDS011;17580;50.850;4.504;2023-03-23T04:05:12;4.10;;;2.10;;
10191;SDS011;17580;50.850;4.504;2023-03-23T04:07:40;5.67;;;2.73;;
10191;SDS011;17580;50.850;4.504;2023-03-23T04:10:07;4.63;;;2.50;;
10191;SDS011;17580;50.850;4.504;2023-03-23T04:12:38;3.87;;;2.37;;
10191;SDS011;17580;50.850;4.504;2023-03-23T04:15:05;8.10;;;2.43;;
10191;SDS011;17580;50.850;4.504;2023-03-23T04:17:33;6.10;;;2.23;;
10191;SDS011;17580;50.850;4.504;2023-03-23T04:20:01;5.50;;;2.57;;
10191;SDS011;17580;50.850;4.504;2023-03-23T04:22:40;3.50;;;2.17;;
10191;SDS011;17580;50.850;4.504;2023-03-23T04:25:09;5.00;;;2.37;;
10191;SDS011;17580;50.850;4.504;2023-03-23T04:27:39;6.70;;;1.57;;
10191;SDS011;17580;50.850;4.504;2023-03-23T04:30:08;6.97;;;2.00;;
10191;SDS011;17580;50.850;4.504;2023-03-23T04:32:37;5.07;;;2.03;;
10191;SDS011;17580;50.850;4.504;2023-03-23T04:35:07;2.57;;;1.77;;
10191;SDS011;17580;50.850;4.504;2023-03-23T04:37:34;4.67;;;2.07;;
10191;SDS011;17580;50.850;4.504;2023-03-23T04:40:01;3.93;;;1.83;;
10191;SDS011;17580;50.850;4.504;2023-03-23T04:42:35;5.27;;;2.30;;
10191;SDS011;17580;50.850;4.504;2023-03-23T04:45:05;5.23;;;1.97;;
10191;SDS011;17580;50.850;4.504;2023-03-23T04:47:34;4.97;;;2.00;;
10191;SDS011;17580;50.850;4.504;2023-03-23T04:50:06;4.73;;;1.87;;
10191;SDS011;17580;50.850;4.504;2023-03-23T04:52:34;3.60;;;1.73;;
10191;SDS011;17580;50.850;4.504;2023-03-23T04:55:03;3.33;;;1.80;;
10191;SDS011;17580;50.850;4.504;2023-03-23T04:57:31;3.60;;;1.67;;
10191;SDS011;17580;50.850;4.504;2023-03-23T04:59:59;7.93;;;1.83;;
10191;SDS011;17580;50.850;4.504;2023-03-23T05:02:35;3.37;;;1.67;;
10191;SDS011;17580;50.850;4.504;2023-03-23T05:05:02;2.93;;;1.57;;
10191;SDS011;17580;50.850;4.504;2023-03-23T05:07:29;2.93;;;1.80;;
10191;SDS011;17580;50.850;4.504;2023-03-23T05:09:56;2.33;;;2.10;;
10191;SDS011;17580;50.850;4.504;2023-03-23T05:12:23;3.90;;;2.03;;
10191;SDS011;17580;50.850;4.504;2023-03-23T05:14:50;4.97;;;1.90;;
10191;SDS011;17580;50.850;4.504;2023-03-23T05:17:17;2.87;;;1.70;;
10191;SDS011;17580;50.850;4.504;2023-03-23T05:19:45;2.70;;;1.90;;
10191;SDS011;17580;50.850;4.504;2023-03-23T05:22:13;4.80;;;1.93;;
10191;SDS011;17580;50.850;4.504;2023-03-23T05:24:40;4.67;;;1.53;;
10191;SDS011;17580;50.850;4.504;2023-03-23T05:27:08;1.97;;;1.77;;
10191;SDS011;17580;50.850;4.504;2023-03-23T05:29:36;2.53;;;1.60;;
10191;SDS011;17580;50.850;4.504;2023-03-23T05:32:06;4.57;;;1.73;;
10191;SDS011;17580;50.850;4.504;2023-03-23T05:34:33;4.43;;;1.90;;
10191;SDS011;17580;50.850;4.504;2023-03-23T05:37:02;3.03;;;1.40;;
10191;SDS011;17580;50.850;4.504;2023-03-23T05:39:30;3.37;;;1.77;;
10191;SDS011;17580;50.850;4.504;2023-03-23T05:41:57;2.30;;;1.77;;
10191;SDS011;17580;50.850;4.504;2023-03-23T05:44:25;5.03;;;2.07;;
10191;SDS011;17580;50.850;4.504;2023-03-23T05:46:52;4.83;;;2.03;;
10191;SDS011;17580;50.850;4.504;2023-03-23T05:49:19;2.60;;;1.57;;
10191;SDS011;17580;50.850;4.504;2023-03-23T05:51:46;3.83;;;1.63;;
10191;SDS011;17580;50.850;4.504;2023-03-23T05:54:16;1.63;;;1.37;;
10191;SDS011;17580;50.850;4.504;2023-03-23T05:56:43;3.17;;;1.53;;
10191;SDS011;17580;50.850;4.504;2023-03-23T05:59:10;4.20;;;2.00;;
10191;SDS011;17580;50.850;4.504;2023-03-23T06:01:37;3.03;;;1.83;;
10191;SDS011;17580;50.850;4.504;2023-03-23T06:04:05;6.40;;;2.07;;
10191;SDS011;17580;50.850;4.504;2023-03-23T06:06:32;3.95;;;2.05;;
10191;SDS011;17580;50.850;4.504;2023-03-23T06:08:59;5.40;;;2.37;;
10191;SDS011;17580;50.850;4.504;2023-03-23T06:11:27;3.97;;;2.10;;
10191;SDS011;17580;50.850;4.504;2023-03-23T06:13:54;5.17;;;1.70;;
10191;SDS011;17580;50.850;4.504;2023-03-23T06:16:22;4.07;;;1.80;;
10191;SDS011;17580;50.850;4.504;2023-03-23T06:18:49;2.83;;;2.10;;
10191;SDS011;17580;50.850;4.504;2023-03-23T06:21:16;3.97;;;1.73;;
10191;SDS011;17580;50.850;4.504;2023-03-23T06:23:44;5.00;;;1.90;;
10191;SDS011;17580;50.850;4.504;2023-03-23T06:26:12;2.23;;;1.80;;
10191;SDS011;17580;50.850;4.504;2023-03-23T06:28:42;3.43;;;2.17;;
10191;SDS011;17580;50.850;4.504;2023-03-23T06:31:10;2.03;;;1.80;;
10191;SDS011;17580;50.850;4.504;2023-03-23T06:33:39;5.33;;;2.43;;
10191;SDS011;17580;50.850;4.504;2023-03-23T06:36:07;8.67;;;2.27;;
10191;SDS011;17580;50.850;4.504;2023-03-23T06:38:37;2.93;;;1.97;;
10191;SDS011;17580;50.850;4.504;2023-03-23T06:41:04;2.30;;;2.10;;
10191;SDS011;17580;50.850;4.504;2023-03-23T06:43:31;4.83;;;2.13;;
10191;SDS011;17580;50.850;4.504;2023-03-23T06:46:02;4.27;;;2.13;;
10191;SDS011;17580;50.850;4.504;2023-03-23T06:48:29;6.57;;;2.30;;
10191;SDS011;17580;50.850;4.504;2023-03-23T06:50:57;4.03;;;2.37;;
10191;SDS011;17580;50.850;4.504;2023-03-23T06:53:24;11.47;;;2.93;;
10191;SDS011;17580;50.850;4.504;2023-03-23T06:55:51;3.43;;;2.20;;
10191;SDS011;17580;50.850;4.504;2023-03-23T06:58:18;2.10;;;1.93;;
10191;SDS011;17580;50.850;4.504;2023-03-23T07:00:46;6.53;;;2.20;;
10191;SDS011;17580;50.850;4.504;2023-03-23T07:03:14;2.63;;;2.30;;
10191;SDS011;17580;50.850;4.504;2023-03-23T07:05:41;5.20;;;2.70;;
10191;SDS011;17580;50.850;4.504;2023-03-23T07:08:12;4.57;;;2.20;;
10191;SDS011;17580;50.850;4.504;2023-03-23T07:10:39;4.83;;;2.50;;
10191;SDS011;17580;50.850;4.504;2023-03-23T07:13:06;4.30;;;2.00;;
10191;SDS011;17580;50.850;4.504;2023-03-23T07:15:33;3.87;;;2.07;;
10191;SDS011;17580;50.850;4.504;2023-03-23T07:18:00;5.80;;;2.50;;
10191;SDS011;17580;50.850;4.504;2023-03-23T07:20:29;2.93;;;2.07;;
10191;SDS011;17580;50.850;4.504;2023-03-23T07:22:56;5.23;;;2.30;;
10191;SDS011;17580;50.850;4.504;2023-03-23T07:25:23;6.93;;;2.37;;
10191;SDS011;17580;50.850;4.504;2023-03-23T07:27:50;3.70;;;1.60;;
10191;SDS011;17580;50.850;4.504;2023-03-23T07:30:17;3.73;;;1.13;;
10191;SDS011;17580;50.850;4.504;2023-03-23T07:32:44;0.80;;;0.80;;
10191;SDS011;17580;50.850;4.504;2023-03-23T07:35:11;1.20;;;0.97;;
10191;SDS011;17580;50.850;4.504;2023-03-23T07:37:40;1.87;;;0.97;;
10191;SDS011;17580;50.850;4.504;2023-03-23T07:40:07;1.97;;;0.90;;
10191;SDS011;17580;50.850;4.504;2023-03-23T07:42:36;3.00;;;1.70;;
10191;SDS011;17580;50.850;4.504;2023-03-23T07:45:03;1.40;;;1.10;;
10191;SDS011;17580;50.850;4.504;2023-03-23T07:47:31;4.30;;;1.47;;
10191;SDS011;17580;50.850;4.504;2023-03-23T07:49:58;3.47;;;1.67;;
10191;SDS011;17580;50.850;4.504;2023-03-23T07:52:25;1.63;;;1.27;;
10191;SDS011;17580;50.850;4.504;2023-03-23T07:54:53;7.47;;;2.00;;
10191;SDS011;17580;50.850;4.504;2023-03-23T07:57:20;3.33;;;1.83;;
10191;SDS011;17580;50.850;4.504;2023-03-23T07:59:47;3.70;;;1.90;;
10191;SDS011;17580;50.850;4.504;2023-03-23T08:02:14;3.27;;;1.87;;
10191;SDS011;17580;50.850;4.504;2023-03-23T08:04:41;5.27;;;2.00;;
10191;SDS011;17580;50.850;4.504;2023-03-23T08:07:09;3.23;;;2.13;;
10191;SDS011;17580;50.850;4.504;2023-03-23T08:09:37;3.90;;;1.60;;
10191;SDS011;17580;50.850;4.504;2023-03-23T08:12:06;2.20;;;1.93;;
10191;SDS011;17580;50.850;4.504;2023-03-23T08:14:33;2.07;;;1.50;;
10191;SDS011;17580;50.850;4.504;2023-03-23T08:17:00;2.43;;;1.57;;
10191;SDS011;17580;50.850;4.504;2023-03-23T08:19:27;4.60;;;1.53;;
10191;SDS011;17580;50.850;4.504;2023-03-23T08:21:54;1.33;;;1.23;;
10191;SDS011;17580;50.850;4.504;2023-03-23T08:24:21;3.40;;;1.23;;
10191;SDS011;17580;50.850;4.504;2023-03-23T08:26:48;2.07;;;1.23;;
10191;SDS011;17580;50.850;4.504;2023-03-23T08:29:16;1.33;;;1.03;;
10191;SDS011;17580;50.850;4.504;2023-03-23T08:31:44;2.20;;;1.10;;
10191;SDS011;17580;50.850;4.504;2023-03-23T08:34:11;1.13;;;1.00;;
10191;SDS011;17580;50.850;4.504;2023-03-23T08:36:38;5.60;;;1.37;;
10191;SDS011;17580;50.850;4.504;2023-03-23T08:39:04;2.20;;;1.10;;
10191;SDS011;17580;50.850;4.504;2023-03-23T08:41:33;1.17;;;1.00;;
10191;SDS011;17580;50.850;4.504;2023-03-23T08:44:00;1.17;;;1.07;;
10191;SDS011;17580;50.850;4.504;2023-03-23T08:46:28;2.80;;;1.30;;
10191;SDS011;17580;50.850;4.504;2023-03-23T08:48:55;1.63;;;1.27;;
10191;SDS011;17580;50.850;4.504;2023-03-23T08:51:22;3.37;;;1.10;;
10191;SDS011;17580;50.850;4.504;2023-03-23T08:53:50;2.00;;;1.20;;
10191;SDS011;17580;50.850;4.504;2023-03-23T08:56:17;4.43;;;1.40;;
10191;SDS011;17580;50.850;4.504;2023-03-23T08:58:45;1.33;;;1.20;;
10191;SDS011;17580;50.850;4.504;2023-03-23T09:01:12;1.33;;;0.97;;
10191;SDS011;17580;50.850;4.504;2023-03-23T09:03:40;1.93;;;1.20;;
10191;SDS011;17580;50.850;4.504;2023-03-23T09:06:08;2.20;;;1.50;;
10191;SDS011;17580;50.850;4.504;2023-03-23T09:08:37;1.73;;;1.10;;
10191;SDS011;17580;50.850;4.504;2023-03-23T09:11:07;2.13;;;1.03;;
10191;SDS011;17580;50.850;4.504;2023-03-23T09:13:36;2.13;;;0.90;;
10191;SDS011;17580;50.850;4.504;2023-03-23T09:16:04;2.40;;;1.37;;
10191;SDS011;17580;50.850;4.504;2023-03-23T09:18:32;2.13;;;1.10;;
10191;SDS011;17580;50.850;4.504;2023-03-23T09:21:02;3.00;;;1.50;;
10191;SDS011;17580;50.850;4.504;2023-03-23T09:23:29;1.57;;;1.20;;
10191;SDS011;17580;50.850;4.504;2023-03-23T09:25:56;1.80;;;1.17;;
10191;SDS011;17580;50.850;4.504;2023-03-23T09:28:23;2.30;;;1.30;;
10191;SDS011;17580;50.850;4.504;2023-03-23T09:30:50;2.13;;;1.10;;
10191;SDS011;17580;50.850;4.504;2023-03-23T09:33:17;2.23;;;1.17;;
10191;SDS011;17580;50.850;4.504;2023-03-23T09:35:44;2.07;;;1.27;;
10191;SDS011;17580;50.850;4.504;2023-03-23T09:38:13;1.17;;;1.17;;
10191;SDS011;17580;50.850;4.504;2023-03-23T09:40:42;1.53;;;1.30;;
10191;SDS011;17580;50.850;4.504;2023-03-23T09:43:26;2.03;;;1.33;;
10191;SDS011;17580;50.850;4.504;2023-03-23T09:48:54;2.03;;;1.20;;
10191;SDS011;17580;50.850;4.504;2023-03-23T09:51:27;2.20;;;1.33;;
10191;SDS011;17580;50.850;4.504;2023-03-23T09:54:03;4.50;;;1.10;;
10191;SDS011;17580;50.850;4.504;2023-03-23T09:56:35;1.53;;;1.37;;
10191;SDS011;17580;50.850;4.504;2023-03-23T09:59:07;1.63;;;1.20;;
10191;SDS011;17580;50.850;4.504;2023-03-23T10:01:41;1.50;;;1.40;;
10191;SDS011;17580;50.850;4.504;2023-03-23T10:04:13;1.83;;;1.20;;
10191;SDS011;17580;50.850;4.504;2023-03-23T10:06:45;1.63;;;1.30;;
10191;SDS011;17580;50.850;4.504;2023-03-23T10:09:15;1.47;;;1.37;;
10191;SDS011;17580;50.850;4.504;2023-03-23T10:11:47;1.80;;;1.37;;
10191;SDS011;17580;50.850;4.504;2023-03-23T10:14:25;1.63;;;1.50;;
10191;SDS011;17580;50.850;4.504;2023-03-23T10:17:04;2.57;;;1.43;;
10191;SDS011;17580;50.850;4.504;2023-03-23T10:19:40;1.53;;;1.43;;
10191;SDS011;17580;50.850;4.504;2023-03-23T10:22:12;3.40;;;1.23;;
10191;SDS011;17580;50.850;4.504;2023-03-23T10:24:48;1.40;;;1.40;;
10191;SDS011;17580;50.850;4.504;2023-03-23T10:27:18;3.63;;;1.70;;
10191;SDS011;17580;50.850;4.504;2023-03-23T10:29:52;1.90;;;1.43;;
10191;SDS011;17580;50.850;4.504;2023-03-23T10:32:34;2.33;;;1.30;;
10191;SDS011;17580;50.850;4.504;2023-03-23T10:35:06;1.83;;;1.73;;
10191;SDS011;17580;50.850;4.504;2023-03-23T10:37:40;2.03;;;1.83;;
10191;SDS011;17580;50.850;4.504;2023-03-23T10:42:43;4.07;;;1.80;;
10191;SDS011;17580;50.850;4.504;2023-03-23T10:45:12;1.87;;;1.60;;
10191;SDS011;17580;50.850;4.504;2023-03-23T10:47:45;4.83;;;2.00;;
10191;SDS011;17580;50.850;4.504;2023-03-23T10:50:16;3.57;;;2.00;;
10191;SDS011;17580;50.850;4.504;2023-03-23T10:52:47;1.80;;;1.67;;
10191;SDS011;17580;50.850;4.504;2023-03-23T10:55:20;4.37;;;2.23;;
10191;SDS011;17580;50.850;4.504;2023-03-23T10:57:58;2.83;;;1.90;;
10191;SDS011;17580;50.850;4.504;2023-03-23T11:00:27;4.73;;;1.87;;
10191;SDS011;17580;50.850;4.504;2023-03-23T11:02:59;3.47;;;2.03;;
10191;SDS011;17580;50.850;4.504;2023-03-23T11:05:35;4.93;;;2.00;;
10191;SDS011;17580;50.850;4.504;2023-03-23T11:08:10;3.67;;;1.97;;
10191;SDS011;17580;50.850;4.504;2023-03-23T11:10:40;4.80;;;1.77;;
10191;SDS011;17580;50.850;4.504;2023-03-23T11:13:14;3.53;;;2.17;;
10191;SDS011;17580;50.850;4.504;2023-03-23T11:15:42;4.27;;;2.47;;
10191;SDS011;17580;50.850;4.504;2023-03-23T11:18:11;5.33;;;2.43;;
10191;SDS011;17580;50.850;4.504;2023-03-23T11:20:45;5.53;;;2.20;;
10191;SDS011;17580;50.850;4.504;2023-03-23T11:23:18;2.23;;;1.93;;
10191;SDS011;17580;50.850;4.504;2023-03-23T11:25:55;5.77;;;3.03;;
10191;SDS011;17580;50.850;4.504;2023-03-23T11:28:29;4.83;;;2.33;;
10191;SDS011;17580;50.850;4.504;2023-03-23T11:30:59;4.47;;;2.20;;
10191;SDS011;17580;50.850;4.504;2023-03-23T11:33:35;4.53;;;1.93;;
10191;SDS011;17580;50.850;4.504;2023-03-23T11:36:05;1.47;;;1.37;;
10191;SDS011;17580;50.850;4.504;2023-03-23T11:38:34;2.83;;;1.80;;
10191;SDS011;17580;50.850;4.504;2023-03-23T11:41:08;5.67;;;2.40;;
10191;SDS011;17580;50.850;4.504;2023-03-23T11:43:39;3.23;;;1.70;;
10191;SDS011;17580;50.850;4.504;2023-03-23T11:46:11;3.63;;;2.10;;
10191;SDS011;17580;50.850;4.504;2023-03-23T11:48:48;3.10;;;1.77;;
10191;SDS011;17580;50.850;4.504;2023-03-23T11:51:20;2.63;;;1.97;;
10191;SDS011;17580;50.850;4.504;2023-03-23T11:53:54;4.13;;;2.10;;
10191;SDS011;17580;50.850;4.504;2023-03-23T11:56:27;3.53;;;1.83;;
10191;SDS011;17580;50.850;4.504;2023-03-23T11:58:56;3.50;;;2.20;;
10191;SDS011;17580;50.850;4.504;2023-03-23T12:01:29;3.30;;;1.80;;
10191;SDS011;17580;50.850;4.504;2023-03-23T12:04:31;5.57;;;2.27;;
10191;SDS011;17580;50.850;4.504;2023-03-23T12:07:17;4.13;;;2.07;;
10191;SDS011;17580;50.850;4.504;2023-03-23T12:09:58;1.50;;;1.40;;
10191;SDS011;17580;50.850;4.504;2023-03-23T12:12:48;4.40;;;1.83;;
10191;SDS011;17580;50.850;4.504;2023-03-23T12:15:25;3.57;;;2.03;;
10191;SDS011;17580;50.850;4.504;2023-03-23T12:17:59;2.73;;;1.73;;
10191;SDS011;17580;50.850;4.504;2023-03-23T12:20:35;3.13;;;2.00;;
10191;SDS011;17580;50.850;4.504;2023-03-23T12:23:18;3.40;;;2.10;;
10191;SDS011;17580;50.850;4.504;2023-03-23T12:25:59;4.40;;;2.03;;
10191;SDS011;17580;50.850;4.504;2023-03-23T12:28:43;3.97;;;1.90;;
10191;SDS011;17580;50.850;4.504;2023-03-23T12:31:23;3.87;;;1.90;;
10191;SDS011;17580;50.850;4.504;2023-03-23T12:33:55;1.80;;;1.60;;
10191;SDS011;17580;50.850;4.504;2023-03-23T12:36:34;4.43;;;1.90;;
10191;SDS011;17580;50.850;4.504;2023-03-23T12:42:10;4.10;;;2.30;;
10191;SDS011;17580;50.850;4.504;2023-03-23T12:44:43;7.67;;;2.67;;
10191;SDS011;17580;50.850;4.504;2023-03-23T12:47:34;4.43;;;2.17;;
10191;SDS011;17580;50.850;4.504;2023-03-23T12:50:07;3.07;;;2.47;;
10191;SDS011;17580;50.850;4.504;2023-03-23T12:52:41;4.63;;;2.00;;
10191;SDS011;17580;50.850;4.504;2023-03-23T12:55:17;3.97;;;2.13;;
10191;SDS011;17580;50.850;4.504;2023-03-23T12:57:49;6.10;;;2.37;;
10191;SDS011;17580;50.850;4.504;2023-03-23T13:00:24;6.53;;;2.50;;
10191;SDS011;17580;50.850;4.504;2023-03-23T13:02:56;4.30;;;2.30;;
10191;SDS011;17580;50.850;4.504;2023-03-23T13:05:27;3.70;;;2.00;;
10191;SDS011;17580;50.850;4.504;2023-03-23T13:08:00;5.20;;;2.70;;
10191;SDS011;17580;50.850;4.504;2023-03-23T13:10:32;5.73;;;2.30;;
10191;SDS011;17580;50.850;4.504;2023-03-23T13:13:06;4.77;;;2.50;;
10191;SDS011;17580;50.850;4.504;2023-03-23T13:15:44;3.57;;;2.80;;
10191;SDS011;17580;50.850;4.504;2023-03-23T13:18:18;5.37;;;2.57;;
10191;SDS011;17580;50.850;4.504;2023-03-23T13:20:53;8.47;;;2.77;;
10191;SDS011;17580;50.850;4.504;2023-03-23T13:23:25;5.10;;;2.80;;
10191;SDS011;17580;50.850;4.504;2023-03-23T13:25:59;5.53;;;2.40;;
10191;SDS011;17580;50.850;4.504;2023-03-23T13:28:29;6.40;;;2.20;;
10191;SDS011;17580;50.850;4.504;2023-03-23T13:31:01;4.73;;;2.50;;
10191;SDS011;17580;50.850;4.504;2023-03-23T13:33:30;5.80;;;2.47;;
10191;SDS011;17580;50.850;4.504;2023-03-23T13:36:03;6.27;;;2.40;;
10191;SDS011;17580;50.850;4.504;2023-03-23T13:38:35;5.10;;;2.30;;
10191;SDS011;17580;50.850;4.504;2023-03-23T13:41:09;2.97;;;2.00;;
10191;SDS011;17580;50.850;4.504;2023-03-23T13:43:39;3.40;;;2.10;;
10191;SDS011;17580;50.850;4.504;2023-03-23T13:46:10;4.37;;;1.77;;
10191;SDS011;17580;50.850;4.504;2023-03-23T13:48:50;6.00;;;2.33;;
10191;SDS011;17580;50.850;4.504;2023-03-23T13:51:34;5.03;;;2.00;;
10191;SDS011;17580;50.850;4.504;2023-03-23T13:54:06;6.33;;;2.33;;
10191;SDS011;17580;50.850;4.504;2023-03-23T13:56:41;4.53;;;2.27;;
10191;SDS011;17580;50.850;4.504;2023-03-23T13:59:14;7.73;;;2.27;;
10191;SDS011;17580;50.850;4.504;2023-03-23T14:01:44;4.83;;;2.27;;
10191;SDS011;17580;50.850;4.504;2023-03-23T14:04:12;5.73;;;2.53;;
10191;SDS011;17580;50.850;4.504;2023-03-23T14:06:43;6.10;;;2.60;;
10191;SDS011;17580;50.850;4.504;2023-03-23T14:09:12;2.77;;;2.03;;
10191;SDS011;17580;50.850;4.504;2023-03-23T14:11:48;7.07;;;2.47;;
10191;SDS011;17580;50.850;4.504;2023-03-23T14:14:20;5.17;;;2.60;;
10191;SDS011;17580;50.850;4.504;2023-03-23T14:16:53;5.57;;;2.47;;
10191;SDS011;17580;50.850;4.504;2023-03-23T14:19:32;3.10;;;1.77;;
10191;SDS011;17580;50.850;4.504;2023-03-23T14:22:03;4.17;;;1.67;;
10191;SDS011;17580;50.850;4.504;2023-03-23T14:24:31;9.93;;;2.70;;
10191;SDS011;17580;50.850;4.504;2023-03-23T14:27:07;5.70;;;2.30;;
10191;SDS011;17580;50.850;4.504;2023-03-23T14:29:36;3.83;;;2.00;;
10191;SDS011;17580;50.850;4.504;2023-03-23T14:32:06;8.30;;;2.70;;
10191;SDS011;17580;50.850;4.504;2023-03-23T14:34:36;8.90;;;2.67;;
10191;SDS011;17580;50.850;4.504;2023-03-23T14:37:03;4.13;;;2.23;;
10191;SDS011;17580;50.850;4.504;2023-03-23T14:39:30;4.83;;;2.33;;
10191;SDS011;17580;50.850;4.504;2023-03-23T14:42:01;6.43;;;2.57;;
10191;SDS011;17580;50.850;4.504;2023-03-23T14:44:29;6.27;;;2.27;;
10191;SDS011;17580;50.850;4.504;2023-03-23T14:47:00;2.97;;;2.37;;
10191;SDS011;17580;50.850;4.504;2023-03-23T14:49:32;8.93;;;3.30;;
10191;SDS011;17580;50.850;4.504;2023-03-23T14:52:03;8.10;;;3.87;;
10191;SDS011;17580;50.850;4.504;2023-03-23T14:54:35;9.87;;;2.60;;
10191;SDS011;17580;50.850;4.504;2023-03-23T14:57:10;4.47;;;2.37;;
10191;SDS011;17580;50.850;4.504;2023-03-23T14:59:39;9.73;;;2.30;;
10191;SDS011;17580;50.850;4.504;2023-03-23T15:02:09;8.97;;;2.50;;
10191;SDS011;17580;50.850;4.504;2023-03-23T15:04:40;3.50;;;2.17;;
10191;SDS011;17580;50.850;4.504;2023-03-23T15:07:09;4.70;;;2.60;;
10191;SDS011;17580;50.850;4.504;2023-03-23T15:09:38;6.97;;;2.10;;
10191;SDS011;17580;50.850;4.504;2023-03-23T15:12:09;6.00;;;2.83;;
10191;SDS011;17580;50.850;4.504;2023-03-23T15:14:45;5.63;;;2.60;;
10191;SDS011;17580;50.850;4.504;2023-03-23T15:17:17;4.30;;;2.37;;
10191;SDS011;17580;50.850;4.504;2023-03-23T15:19:47;7.10;;;2.10;;
10191;SDS011;17580;50.850;4.504;2023-03-23T15:22:20;4.87;;;2.43;;
10191;SDS011;17580;50.850;4.504;2023-03-23T15:24:49;3.80;;;1.93;;